sensor_id;sensor_type;location;lat;lon;timestamp;noise_LAeq;noise_LA_min;noise_LA_max;noise_LA01;noise_LA95
37833;Laerm;23678;48.778;9.160;2023-09-12T00:01:06;37.46;30.89;41.68;;
37833;Laerm;23678;48.778;9.160;2023-09-12T00:03:50;38.10;30.89;46.50;;
37833;Laerm;23678;48.778;9.160;2023-09-12T00:06:34;36.90;29.92;39.81;;
37833;Laerm;23678;48.778;9.160;2023-09-12T00:09:18;37.04;29.92;40.23;;
37833;Laerm;23678;48.778;9.160;2023-09-12T00:12:15;37.02;30.89;42.93;;
37833;Laerm;23678;48.778;9.160;2023-09-12T00:15:00;37.07;30.89;40.13;;
37833;Laerm;23678;48.778;9.160;2023-09-12T00:17:44;37.25;31.68;43.86;;
37833;Laerm;23678;48.778;9.160;2023-09-12T00:20:28;36.96;29.92;40.43;;
37833;Laerm;23678;48.778;9.160;2023-09-12T00:23:12;36.95;30.89;39.70;;
37833;Laerm;23678;48.778;9.160;2023-09-12T00:25:56;37.07;31.68;40.23;;
37833;Laerm;23678;48.778;9.160;2023-09-12T00:28:40;38.00;31.68;44.31;;
37833;Laerm;23678;48.778;9.160;2023-09-12T00:31:24;37.47;29.92;42.35;;
37833;Laerm;23678;48.778;9.160;2023-09-12T00:34:08;37.45;31.68;48.99;;
37833;Laerm;23678;48.778;9.160;2023-09-12T00:36:52;37.51;30.89;40.98;;
37833;Laerm;23678;48.778;9.160;2023-09-12T00:39:36;37.20;28.67;41.30;;
37833;Laerm;23678;48.778;9.160;2023-09-12T00:42:20;38.29;31.68;47.72;;
37833;Laerm;23678;48.778;9.160;2023-09-12T00:45:04;37.15;30.54;40.13;;
37833;Laerm;23678;48.778;9.160;2023-09-12T00:47:48;37.61;31.68;41.75;;
37833;Laerm;23678;48.778;9.160;2023-09-12T00:50:33;37.36;31.68;41.22;;
37833;Laerm;23678;48.778;9.160;2023-09-12T00:53:17;37.02;31.68;39.58;;
37833;Laerm;23678;48.778;9.160;2023-09-12T00:56:02;37.00;30.89;40.13;;
37833;Laerm;23678;48.778;9.160;2023-09-12T00:58:45;36.95;30.89;39.92;;
37833;Laerm;23678;48.778;9.160;2023-09-12T01:01:29;37.09;30.89;39.92;;
37833;Laerm;23678;48.778;9.160;2023-09-12T01:04:15;37.13;29.92;39.70;;
37833;Laerm;23678;48.778;9.160;2023-09-12T01:06:59;37.07;31.33;40.33;;
37833;Laerm;23678;48.778;9.160;2023-09-12T01:09:43;37.17;29.92;40.89;;
37833;Laerm;23678;48.778;9.160;2023-09-12T01:12:27;38.45;31.68;50.57;;
37833;Laerm;23678;48.778;9.160;2023-09-12T01:15:11;37.11;30.89;48.87;;
37833;Laerm;23678;48.778;9.160;2023-09-12T01:17:57;37.41;32.35;41.06;;
37833;Laerm;23678;48.778;9.160;2023-09-12T01:20:44;37.01;32.35;39.81;;
37833;Laerm;23678;48.778;9.160;2023-09-12T01:23:44;38.37;31.68;49.64;;
37833;Laerm;23678;48.778;9.160;2023-09-12T01:29:38;37.04;30.89;39.92;;
37833;Laerm;23678;48.778;9.160;2023-09-12T01:32:22;37.00;30.89;40.18;;
37833;Laerm;23678;48.778;9.160;2023-09-12T01:35:06;37.07;30.89;39.70;;
37833;Laerm;23678;48.778;9.160;2023-09-12T01:37:51;37.24;32.00;40.80;;
37833;Laerm;23678;48.778;9.160;2023-09-12T01:40:48;37.22;30.89;40.89;;
37833;Laerm;23678;48.778;9.160;2023-09-12T01:43:32;37.10;30.89;40.13;;
37833;Laerm;23678;48.778;9.160;2023-09-12T01:46:18;37.13;30.89;40.13;;
37833;Laerm;23678;48.778;9.160;2023-09-12T01:49:05;37.18;30.89;40.03;;
37833;Laerm;23678;48.778;9.160;2023-09-12T01:51:50;37.15;32.35;40.13;;
37833;Laerm;23678;48.778;9.160;2023-09-12T01:54:34;37.19;30.89;40.23;;
37833;Laerm;23678;48.778;9.160;2023-09-12T01:57:20;37.26;30.89;42.59;;
37833;Laerm;23678;48.778;9.160;2023-09-12T02:00:04;37.17;29.92;40.13;;
37833;Laerm;23678;48.778;9.160;2023-09-12T02:02:48;37.12;29.92;40.33;;
37833;Laerm;23678;48.778;9.160;2023-09-12T02:05:32;37.24;32.35;40.80;;
37833;Laerm;23678;48.778;9.160;2023-09-12T02:08:16;37.19;26.91;40.03;;
37833;Laerm;23678;48.778;9.160;2023-09-12T02:11:00;37.18;29.92;40.23;;
37833;Laerm;23678;48.778;9.160;2023-09-12T02:13:44;37.17;32.35;40.13;;
37833;Laerm;23678;48.778;9.160;2023-09-12T02:16:29;37.26;31.68;50.47;;
37833;Laerm;23678;48.778;9.160;2023-09-12T02:19:13;38.00;32.93;41.96;;
37833;Laerm;23678;48.778;9.160;2023-09-12T02:21:57;37.22;31.68;39.92;;
37833;Laerm;23678;48.778;9.160;2023-09-12T02:24:41;37.18;32.35;40.13;;
37833;Laerm;23678;48.778;9.160;2023-09-12T02:27:24;37.49;31.68;42.47;;
37833;Laerm;23678;48.778;9.160;2023-09-12T02:30:09;37.90;32.35;41.53;;
37833;Laerm;23678;48.778;9.160;2023-09-12T02:32:53;37.25;31.68;40.03;;
37833;Laerm;23678;48.778;9.160;2023-09-12T02:35:37;37.96;32.93;41.30;;
37833;Laerm;23678;48.778;9.160;2023-09-12T02:38:21;37.90;32.35;41.53;;
37833;Laerm;23678;48.778;9.160;2023-09-12T02:41:05;37.96;30.89;42.71;;
37833;Laerm;23678;48.778;9.160;2023-09-12T02:43:49;37.64;32.35;40.71;;
37833;Laerm;23678;48.778;9.160;2023-09-12T02:46:33;37.21;31.68;40.03;;
37833;Laerm;23678;48.778;9.160;2023-09-12T02:49:17;37.26;31.68;40.03;;
37833;Laerm;23678;48.778;9.160;2023-09-12T02:52:01;37.27;32.35;40.43;;
37833;Laerm;23678;48.778;9.160;2023-09-12T02:54:45;37.49;31.68;41.75;;
37833;Laerm;23678;48.778;9.160;2023-09-12T02:57:29;37.50;30.89;40.98;;
37833;Laerm;23678;48.778;9.160;2023-09-12T03:00:12;37.42;30.89;40.13;;
37833;Laerm;23678;48.778;9.160;2023-09-12T03:02:57;38.08;32.35;46.07;;
37833;Laerm;23678;48.778;9.160;2023-09-12T03:05:41;37.28;31.68;40.03;;
37833;Laerm;23678;48.778;9.160;2023-09-12T03:08:25;38.41;32.93;46.45;;
37833;Laerm;23678;48.778;9.160;2023-09-12T03:11:09;37.75;32.35;41.89;;
37833;Laerm;23678;48.778;9.160;2023-09-12T03:13:53;39.30;32.58;49.89;;
37833;Laerm;23678;48.778;9.160;2023-09-12T03:16:37;38.09;33.44;43.72;;
37833;Laerm;23678;48.778;9.160;2023-09-12T03:19:22;37.51;32.35;40.54;;
37833;Laerm;23678;48.778;9.160;2023-09-12T03:22:05;37.44;31.68;40.23;;
37833;Laerm;23678;48.778;9.160;2023-09-12T03:24:49;37.75;32.35;41.30;;
37833;Laerm;23678;48.778;9.160;2023-09-12T03:27:33;37.61;30.89;42.16;;
37833;Laerm;23678;48.778;9.160;2023-09-12T03:30:17;37.92;32.35;43.49;;
37833;Laerm;23678;48.778;9.160;2023-09-12T03:33:03;37.77;33.09;40.53;;
37833;Laerm;23678;48.778;9.160;2023-09-12T03:35:47;38.13;32.93;43.81;;
37833;Laerm;23678;48.778;9.160;2023-09-12T03:38:32;37.75;33.44;42.16;;
37833;Laerm;23678;48.778;9.160;2023-09-12T03:41:16;38.58;32.58;45.30;;
37833;Laerm;23678;48.778;9.160;2023-09-12T03:44:01;38.75;30.89;47.28;;
37833;Laerm;23678;48.778;9.160;2023-09-12T03:46:45;37.81;32.35;42.03;;
37833;Laerm;23678;48.778;9.160;2023-09-12T03:49:28;37.45;31.68;42.41;;
37833;Laerm;23678;48.778;9.160;2023-09-12T03:52:12;37.87;31.68;40.89;;
37833;Laerm;23678;48.778;9.160;2023-09-12T03:54:56;38.00;31.68;45.36;;
37833;Laerm;23678;48.778;9.160;2023-09-12T03:57:40;37.48;31.68;40.43;;
37833;Laerm;23678;48.778;9.160;2023-09-12T04:00:24;38.87;32.93;47.52;;
37833;Laerm;23678;48.778;9.160;2023-09-12T04:03:08;37.76;32.93;42.41;;
37833;Laerm;23678;48.778;9.160;2023-09-12T04:05:53;37.88;32.93;41.75;;
37833;Laerm;23678;48.778;9.160;2023-09-12T04:08:37;38.84;33.44;46.48;;
37833;Laerm;23678;48.778;9.160;2023-09-12T04:11:21;39.82;32.93;48.99;;
37833;Laerm;23678;48.778;9.160;2023-09-12T04:14:04;38.06;33.44;41.30;;
37833;Laerm;23678;48.778;9.160;2023-09-12T04:16:48;39.83;33.44;49.02;;
37833;Laerm;23678;48.778;9.160;2023-09-12T04:19:32;39.68;32.93;50.16;;
37833;Laerm;23678;48.778;9.160;2023-09-12T04:22:16;38.86;32.93;47.22;;
37833;Laerm;23678;48.778;9.160;2023-09-12T04:25:00;41.24;31.68;54.53;;
37833;Laerm;23678;48.778;9.160;2023-09-12T04:27:44;42.82;34.34;58.24;;
37833;Laerm;23678;48.778;9.160;2023-09-12T04:30:28;38.57;33.44;43.72;;
37833;Laerm;23678;48.778;9.160;2023-09-12T04:33:12;39.60;34.31;48.07;;
37833;Laerm;23678;48.778;9.160;2023-09-12T04:36:00;38.53;32.35;50.84;;
37833;Laerm;23678;48.778;9.160;2023-09-12T04:38:44;39.11;33.90;42.03;;
37833;Laerm;23678;48.778;9.160;2023-09-12T04:41:28;40.01;33.90;52.01;;
37833;Laerm;23678;48.778;9.160;2023-09-12T04:44:12;42.15;33.90;57.19;;
37833;Laerm;23678;48.778;9.160;2023-09-12T04:46:56;38.74;33.44;43.19;;
37833;Laerm;23678;48.778;9.160;2023-09-12T04:49:40;38.77;34.31;45.83;;
37833;Laerm;23678;48.778;9.160;2023-09-12T04:52:24;39.11;32.93;47.84;;
37833;Laerm;23678;48.778;9.160;2023-09-12T04:55:08;40.15;33.44;50.35;;
37833;Laerm;23678;48.778;9.160;2023-09-12T04:57:52;40.36;32.93;48.88;;
37833;Laerm;23678;48.778;9.160;2023-09-12T05:00:36;38.55;33.90;42.59;;
37833;Laerm;23678;48.778;9.160;2023-09-12T05:03:20;41.33;35.04;57.05;;
37833;Laerm;23678;48.778;9.160;2023-09-12T05:06:03;41.04;34.31;54.57;;
37833;Laerm;23678;48.778;9.160;2023-09-12T05:08:47;40.64;34.31;59.11;;
37833;Laerm;23678;48.778;9.160;2023-09-12T05:11:31;39.54;31.68;44.87;;
37833;Laerm;23678;48.778;9.160;2023-09-12T05:14:15;40.53;35.04;48.08;;
37833;Laerm;23678;48.778;9.160;2023-09-12T05:16:59;42.47;35.36;55.98;;
37833;Laerm;23678;48.778;9.160;2023-09-12T05:19:45;41.72;35.36;54.92;;
37833;Laerm;23678;48.778;9.160;2023-09-12T05:22:29;43.55;35.66;57.93;;
37833;Laerm;23678;48.778;9.160;2023-09-12T05:25:13;40.36;33.90;46.78;;
37833;Laerm;23678;48.778;9.160;2023-09-12T05:27:57;40.94;33.90;51.50;;
37833;Laerm;23678;48.778;9.160;2023-09-12T05:30:44;40.24;35.04;47.55;;
37833;Laerm;23678;48.778;9.160;2023-09-12T05:33:28;42.46;35.66;51.22;;
37833;Laerm;23678;48.778;9.160;2023-09-12T05:36:12;41.12;34.69;52.35;;
37833;Laerm;23678;48.778;9.160;2023-09-12T05:38:56;40.02;33.90;48.23;;
37833;Laerm;23678;48.778;9.160;2023-09-12T05:41:40;42.25;35.36;61.67;;
37833;Laerm;23678;48.778;9.160;2023-09-12T05:44:24;42.59;35.36;56.14;;
37833;Laerm;23678;48.778;9.160;2023-09-12T05:47:08;41.07;35.66;52.87;;
37833;Laerm;23678;48.778;9.160;2023-09-12T05:49:52;43.17;34.69;56.77;;
37833;Laerm;23678;48.778;9.160;2023-09-12T05:52:36;41.21;34.31;47.93;;
37833;Laerm;23678;48.778;9.160;2023-09-12T05:55:20;41.06;34.31;53.99;;
37833;Laerm;23678;48.778;9.160;2023-09-12T05:58:04;39.30;33.44;51.21;;
37833;Laerm;23678;48.778;9.160;2023-09-12T06:00:49;40.72;35.04;50.36;;
37833;Laerm;23678;48.778;9.160;2023-09-12T06:03:33;42.06;35.04;50.78;;
37833;Laerm;23678;48.778;9.160;2023-09-12T06:06:17;41.10;34.69;48.18;;
37833;Laerm;23678;48.778;9.160;2023-09-12T06:09:02;39.39;34.69;48.52;;
37833;Laerm;23678;48.778;9.160;2023-09-12T06:11:47;41.64;35.94;50.37;;
37833;Laerm;23678;48.778;9.160;2023-09-12T06:14:31;41.58;35.04;58.18;;
37833;Laerm;23678;48.778;9.160;2023-09-12T06:17:15;40.08;33.90;50.33;;
37833;Laerm;23678;48.778;9.160;2023-09-12T06:19:59;39.62;33.90;48.76;;
37833;Laerm;23678;48.778;9.160;2023-09-12T06:22:43;42.10;35.66;46.50;;
37833;Laerm;23678;48.778;9.160;2023-09-12T06:25:27;41.81;33.90;51.59;;
37833;Laerm;23678;48.778;9.160;2023-09-12T06:28:12;41.74;34.69;52.92;;
37833;Laerm;23678;48.778;9.160;2023-09-12T06:31:08;41.18;34.69;49.93;;
37833;Laerm;23678;48.778;9.160;2023-09-12T06:33:53;39.59;34.31;47.88;;
37833;Laerm;23678;48.778;9.160;2023-09-12T06:36:38;39.66;33.44;54.25;;
37833;Laerm;23678;48.778;9.160;2023-09-12T06:39:22;42.96;34.69;55.49;;
37833;Laerm;23678;48.778;9.160;2023-09-12T06:42:08;41.62;32.93;51.70;;
37833;Laerm;23678;48.778;9.160;2023-09-12T06:44:55;40.56;34.69;49.07;;
37833;Laerm;23678;48.778;9.160;2023-09-12T06:47:55;39.26;34.31;44.15;;
37833;Laerm;23678;48.778;9.160;2023-09-12T06:50:38;41.66;33.90;50.90;;
37833;Laerm;23678;48.778;9.160;2023-09-12T06:53:22;39.81;35.04;47.50;;
37833;Laerm;23678;48.778;9.160;2023-09-12T06:56:06;41.44;33.90;55.81;;
37833;Laerm;23678;48.778;9.160;2023-09-12T06:58:50;39.40;32.93;49.55;;
37833;Laerm;23678;48.778;9.160;2023-09-12T07:01:36;39.97;33.90;49.79;;
37833;Laerm;23678;48.778;9.160;2023-09-12T07:04:21;39.09;32.93;44.07;;
37833;Laerm;23678;48.778;9.160;2023-09-12T07:07:04;40.85;33.44;52.64;;
37833;Laerm;23678;48.778;9.160;2023-09-12T07:09:48;40.66;33.44;53.26;;
37833;Laerm;23678;48.778;9.160;2023-09-12T07:12:32;40.95;35.04;52.73;;
37833;Laerm;23678;48.778;9.160;2023-09-12T07:15:16;39.79;32.35;48.55;;
37833;Laerm;23678;48.778;9.160;2023-09-12T07:18:00;39.59;33.44;51.04;;
37833;Laerm;23678;48.778;9.160;2023-09-12T07:20:44;40.13;33.44;49.96;;
37833;Laerm;23678;48.778;9.160;2023-09-12T07:23:29;40.21;33.44;47.63;;
37833;Laerm;23678;48.778;9.160;2023-09-12T07:26:13;38.56;33.44;43.68;;
37833;Laerm;23678;48.778;9.160;2023-09-12T07:28:58;40.74;33.90;52.63;;
37833;Laerm;23678;48.778;9.160;2023-09-12T07:31:45;39.93;34.69;52.57;;
37833;Laerm;23678;48.778;9.160;2023-09-12T07:34:29;39.57;33.44;51.25;;
37833;Laerm;23678;48.778;9.160;2023-09-12T07:37:13;40.85;30.89;52.23;;
37833;Laerm;23678;48.778;9.160;2023-09-12T07:39:58;40.02;31.33;48.21;;
37833;Laerm;23678;48.778;9.160;2023-09-12T07:42:42;40.15;31.68;48.55;;
37833;Laerm;23678;48.778;9.160;2023-09-12T07:48:48;38.95;32.93;44.19;;
37833;Laerm;23678;48.778;9.160;2023-09-12T07:51:32;41.15;33.90;51.93;;
37833;Laerm;23678;48.778;9.160;2023-09-12T07:54:16;40.98;32.35;51.88;;
37833;Laerm;23678;48.778;9.160;2023-09-12T07:57:01;39.69;33.09;48.37;;
37833;Laerm;23678;48.778;9.160;2023-09-12T07:59:45;41.50;35.04;52.40;;
37833;Laerm;23678;48.778;9.160;2023-09-12T08:02:29;39.89;33.90;48.21;;
37833;Laerm;23678;48.778;9.160;2023-09-12T08:05:13;39.76;32.93;46.76;;
37833;Laerm;23678;48.778;9.160;2023-09-12T08:07:57;40.68;32.35;51.98;;
37833;Laerm;23678;48.778;9.160;2023-09-12T08:10:41;40.03;34.31;45.97;;
37833;Laerm;23678;48.778;9.160;2023-09-12T08:13:26;40.04;33.44;50.97;;
37833;Laerm;23678;48.778;9.160;2023-09-12T08:16:11;41.61;31.68;55.32;;
37833;Laerm;23678;48.778;9.160;2023-09-12T08:18:54;42.18;33.90;46.62;;
37833;Laerm;23678;48.778;9.160;2023-09-12T08:21:38;40.47;33.44;47.78;;
37833;Laerm;23678;48.778;9.160;2023-09-12T08:24:22;40.21;32.35;50.61;;
37833;Laerm;23678;48.778;9.160;2023-09-12T08:27:06;38.98;31.68;45.75;;
37833;Laerm;23678;48.778;9.160;2023-09-12T08:29:50;39.86;31.68;44.97;;
37833;Laerm;23678;48.778;9.160;2023-09-12T08:32:34;39.56;32.93;48.92;;
37833;Laerm;23678;48.778;9.160;2023-09-12T08:35:18;39.24;32.93;45.60;;
37833;Laerm;23678;48.778;9.160;2023-09-12T08:38:02;41.19;34.69;49.35;;
37833;Laerm;23678;48.778;9.160;2023-09-12T08:40:50;41.57;32.93;54.51;;
37833;Laerm;23678;48.778;9.160;2023-09-12T08:43:34;41.43;34.31;60.75;;
37833;Laerm;23678;48.778;9.160;2023-09-12T08:46:19;40.55;32.93;56.46;;
37833;Laerm;23678;48.778;9.160;2023-09-12T08:49:04;40.85;32.93;51.26;;
37833;Laerm;23678;48.778;9.160;2023-09-12T08:51:50;39.86;31.68;56.03;;
37833;Laerm;23678;48.778;9.160;2023-09-12T08:54:33;40.16;29.92;45.99;;
37833;Laerm;23678;48.778;9.160;2023-09-12T08:57:17;41.01;35.04;46.59;;
37833;Laerm;23678;48.778;9.160;2023-09-12T09:00:01;39.71;34.31;53.52;;
37833;Laerm;23678;48.778;9.160;2023-09-12T09:02:58;40.91;32.35;54.36;;
37833;Laerm;23678;48.778;9.160;2023-09-12T09:05:42;40.13;30.89;50.91;;
37833;Laerm;23678;48.778;9.160;2023-09-12T09:08:27;40.35;30.89;51.08;;
37833;Laerm;23678;48.778;9.160;2023-09-12T09:11:11;39.16;32.35;45.91;;
37833;Laerm;23678;48.778;9.160;2023-09-12T09:13:55;39.16;32.35;45.45;;
37833;Laerm;23678;48.778;9.160;2023-09-12T09:16:39;40.60;32.93;48.84;;
37833;Laerm;23678;48.778;9.160;2023-09-12T09:19:26;41.25;30.89;53.83;;
37833;Laerm;23678;48.778;9.160;2023-09-12T09:22:23;39.35;32.93;46.71;;
37833;Laerm;23678;48.778;9.160;2023-09-12T09:25:10;39.72;31.68;50.46;;
37833;Laerm;23678;48.778;9.160;2023-09-12T09:27:58;39.04;32.35;46.15;;
37833;Laerm;23678;48.778;9.160;2023-09-12T09:30:43;39.09;30.89;52.52;;
37833;Laerm;23678;48.778;9.160;2023-09-12T09:33:27;40.07;28.67;48.36;;
37833;Laerm;23678;48.778;9.160;2023-09-12T09:36:11;41.26;34.69;44.69;;
37833;Laerm;23678;48.778;9.160;2023-09-12T09:38:56;42.94;34.69;57.13;;
37833;Laerm;23678;48.778;9.160;2023-09-12T09:41:40;41.35;33.90;53.20;;
37833;Laerm;23678;48.778;9.160;2023-09-12T09:44:26;41.84;33.44;55.58;;
37833;Laerm;23678;48.778;9.160;2023-09-12T09:47:10;39.36;33.90;44.07;;
37833;Laerm;23678;48.778;9.160;2023-09-12T09:49:54;39.99;35.04;43.94;;
37833;Laerm;23678;48.778;9.160;2023-09-12T09:52:42;41.69;33.90;51.35;;
37833;Laerm;23678;48.778;9.160;2023-09-12T09:55:26;41.40;32.93;49.56;;
37833;Laerm;23678;48.778;9.160;2023-09-12T09:58:14;40.43;32.93;53.07;;
37833;Laerm;23678;48.778;9.160;2023-09-12T10:01:02;40.10;32.93;49.04;;
37833;Laerm;23678;48.778;9.160;2023-09-12T10:03:50;42.88;37.12;52.52;;
37833;Laerm;23678;48.778;9.160;2023-09-12T10:06:42;41.68;34.31;53.28;;
37833;Laerm;23678;48.778;9.160;2023-09-12T10:09:26;40.95;33.90;53.14;;
37833;Laerm;23678;48.778;9.160;2023-09-12T10:12:11;44.10;34.31;60.04;;
37833;Laerm;23678;48.778;9.160;2023-09-12T10:14:55;41.31;34.31;47.14;;
37833;Laerm;23678;48.778;9.160;2023-09-12T10:17:40;41.57;33.44;51.84;;
37833;Laerm;23678;48.778;9.160;2023-09-12T10:20:33;40.33;34.69;50.27;;
37833;Laerm;23678;48.778;9.160;2023-09-12T10:23:41;39.58;32.35;46.64;;
37833;Laerm;23678;48.778;9.160;2023-09-12T10:26:25;41.20;35.36;49.51;;
37833;Laerm;23678;48.778;9.160;2023-09-12T10:29:09;40.38;34.31;44.76;;
37833;Laerm;23678;48.778;9.160;2023-09-12T10:31:55;41.05;35.36;51.56;;
37833;Laerm;23678;48.778;9.160;2023-09-12T10:34:40;39.62;34.31;50.33;;
37833;Laerm;23678;48.778;9.160;2023-09-12T10:37:28;40.62;32.93;52.53;;
37833;Laerm;23678;48.778;9.160;2023-09-12T10:40:13;40.82;34.31;48.67;;
37833;Laerm;23678;48.778;9.160;2023-09-12T10:42:59;41.48;35.36;49.04;;
37833;Laerm;23678;48.778;9.160;2023-09-12T10:45:44;39.40;32.93;50.07;;
37833;Laerm;23678;48.778;9.160;2023-09-12T10:48:27;39.06;32.35;43.94;;
37833;Laerm;23678;48.778;9.160;2023-09-12T10:51:12;40.79;32.35;49.20;;
37833;Laerm;23678;48.778;9.160;2023-09-12T10:53:57;40.46;32.93;46.43;;
37833;Laerm;23678;48.778;9.160;2023-09-12T10:56:41;39.22;30.89;46.34;;
37833;Laerm;23678;48.778;9.160;2023-09-12T10:59:25;43.36;32.35;58.57;;
37833;Laerm;23678;48.778;9.160;2023-09-12T11:08:12;40.11;32.93;48.40;;
37833;Laerm;23678;48.778;9.160;2023-09-12T11:11:16;41.37;32.93;55.37;;
37833;Laerm;23678;48.778;9.160;2023-09-12T11:14:04;40.57;33.44;47.67;;
37833;Laerm;23678;48.778;9.160;2023-09-12T11:19:50;39.65;32.93;49.03;;
37833;Laerm;23678;48.778;9.160;2023-09-12T11:22:42;40.75;34.31;47.61;;
37833;Laerm;23678;48.778;9.160;2023-09-12T11:25:26;39.65;31.68;48.55;;
37833;Laerm;23678;48.778;9.160;2023-09-12T11:28:10;38.48;29.92;42.76;;
37833;Laerm;23678;48.778;9.160;2023-09-12T11:30:55;40.76;32.93;55.10;;
37833;Laerm;23678;48.778;9.160;2023-09-12T11:33:41;40.89;32.35;58.36;;
37833;Laerm;23678;48.778;9.160;2023-09-12T11:36:24;40.37;32.35;59.45;;
37833;Laerm;23678;48.778;9.160;2023-09-12T11:42:11;40.95;34.69;58.27;;
37833;Laerm;23678;48.778;9.160;2023-09-12T11:45:19;39.91;31.68;55.06;;
37833;Laerm;23678;48.778;9.160;2023-09-12T11:48:03;40.91;31.33;56.40;;
37833;Laerm;23678;48.778;9.160;2023-09-12T11:50:51;40.80;33.90;48.92;;
37833;Laerm;23678;48.778;9.160;2023-09-12T11:53:35;41.02;33.90;48.59;;
37833;Laerm;23678;48.778;9.160;2023-09-12T11:56:19;40.55;33.90;56.22;;
37833;Laerm;23678;48.778;9.160;2023-09-12T11:59:04;40.56;30.89;54.96;;
37833;Laerm;23678;48.778;9.160;2023-09-12T12:01:49;39.92;32.35;46.23;;
37833;Laerm;23678;48.778;9.160;2023-09-12T12:04:33;39.81;32.93;45.07;;
37833;Laerm;23678;48.778;9.160;2023-09-12T12:07:18;40.10;33.44;47.14;;
37833;Laerm;23678;48.778;9.160;2023-09-12T12:10:02;39.43;32.93;55.08;;
37833;Laerm;23678;48.778;9.160;2023-09-12T12:12:47;40.15;31.68;47.72;;
37833;Laerm;23678;48.778;9.160;2023-09-12T12:15:31;39.38;30.89;46.76;;
37833;Laerm;23678;48.778;9.160;2023-09-12T12:18:16;38.31;28.67;45.07;;
37833;Laerm;23678;48.778;9.160;2023-09-12T12:21:00;39.92;30.89;47.84;;
37833;Laerm;23678;48.778;9.160;2023-09-12T12:23:44;41.03;28.67;56.76;;
37833;Laerm;23678;48.778;9.160;2023-09-12T12:26:28;40.01;32.93;46.84;;
37833;Laerm;23678;48.778;9.160;2023-09-12T12:29:12;39.01;31.68;54.18;;
37833;Laerm;23678;48.778;9.160;2023-09-12T12:32:02;39.69;30.89;47.48;;
37833;Laerm;23678;48.778;9.160;2023-09-12T12:34:49;40.64;30.89;60.40;;
37833;Laerm;23678;48.778;9.160;2023-09-12T12:37:33;38.50;30.89;44.54;;
37833;Laerm;23678;48.778;9.160;2023-09-12T12:40:17;40.20;31.68;49.29;;
37833;Laerm;23678;48.778;9.160;2023-09-12T12:43:01;39.37;29.92;44.90;;
37833;Laerm;23678;48.778;9.160;2023-09-12T12:45:55;40.63;32.93;49.12;;
37833;Laerm;23678;48.778;9.160;2023-09-12T12:48:42;41.43;28.67;57.80;;
37833;Laerm;23678;48.778;9.160;2023-09-12T12:51:27;39.70;28.67;50.79;;
37833;Laerm;23678;48.778;9.160;2023-09-12T12:54:13;41.03;30.89;58.73;;
37833;Laerm;23678;48.778;9.160;2023-09-12T12:56:58;40.35;32.93;57.23;;
37833;Laerm;23678;48.778;9.160;2023-09-12T12:59:44;41.23;35.04;56.41;;
37833;Laerm;23678;48.778;9.160;2023-09-12T13:02:28;40.79;31.68;57.88;;
37833;Laerm;23678;48.778;9.160;2023-09-12T13:05:19;40.55;29.92;51.82;;
37833;Laerm;23678;48.778;9.160;2023-09-12T13:08:04;41.41;33.44;51.50;;
37833;Laerm;23678;48.778;9.160;2023-09-12T13:10:48;40.47;32.35;49.10;;
37833;Laerm;23678;48.778;9.160;2023-09-12T13:13:32;39.68;32.58;53.88;;
37833;Laerm;23678;48.778;9.160;2023-09-12T13:16:16;41.32;30.89;57.17;;
37833;Laerm;23678;48.778;9.160;2023-09-12T13:19:00;40.75;34.31;47.28;;
37833;Laerm;23678;48.778;9.160;2023-09-12T13:21:44;40.75;32.35;48.74;;
37833;Laerm;23678;48.778;9.160;2023-09-12T13:24:28;41.20;33.44;55.00;;
37833;Laerm;23678;48.778;9.160;2023-09-12T13:27:12;40.30;32.35;46.84;;
37833;Laerm;23678;48.778;9.160;2023-09-12T13:29:56;40.35;31.68;50.48;;
37833;Laerm;23678;48.778;9.160;2023-09-12T13:32:40;39.76;31.68;52.72;;
37833;Laerm;23678;48.778;9.160;2023-09-12T13:35:24;41.53;33.90;55.03;;
37833;Laerm;23678;48.778;9.160;2023-09-12T13:38:08;41.44;34.31;58.50;;
37833;Laerm;23678;48.778;9.160;2023-09-12T13:40:53;41.49;32.93;59.52;;
37833;Laerm;23678;48.778;9.160;2023-09-12T13:43:37;40.31;32.35;60.08;;
37833;Laerm;23678;48.778;9.160;2023-09-12T13:46:21;41.21;32.93;59.78;;
37833;Laerm;23678;48.778;9.160;2023-09-12T13:49:05;42.17;33.90;60.47;;
37833;Laerm;23678;48.778;9.160;2023-09-12T13:51:49;41.91;33.44;59.45;;
37833;Laerm;23678;48.778;9.160;2023-09-12T13:54:33;42.30;35.36;58.92;;
37833;Laerm;23678;48.778;9.160;2023-09-12T13:57:17;41.02;31.68;59.27;;
37833;Laerm;23678;48.778;9.160;2023-09-12T14:00:01;39.00;32.93;55.89;;
37833;Laerm;23678;48.778;9.160;2023-09-12T14:02:45;40.76;33.44;52.00;;
37833;Laerm;23678;48.778;9.160;2023-09-12T14:05:29;42.19;32.93;58.93;;
37833;Laerm;23678;48.778;9.160;2023-09-12T14:08:13;42.90;35.04;61.06;;
37833;Laerm;23678;48.778;9.160;2023-09-12T14:10:57;41.36;31.68;61.41;;
37833;Laerm;23678;48.778;9.160;2023-09-12T14:13:41;42.78;35.66;60.14;;
37833;Laerm;23678;48.778;9.160;2023-09-12T14:16:25;42.12;33.90;61.56;;
37833;Laerm;23678;48.778;9.160;2023-09-12T14:19:09;41.19;34.31;59.97;;
37833;Laerm;23678;48.778;9.160;2023-09-12T14:21:53;41.08;31.68;60.21;;
37833;Laerm;23678;48.778;9.160;2023-09-12T14:24:37;41.59;34.31;59.86;;
37833;Laerm;23678;48.778;9.160;2023-09-12T14:27:21;41.54;30.89;63.22;;
37833;Laerm;23678;48.778;9.160;2023-09-12T14:30:06;41.29;34.69;61.65;;
37833;Laerm;23678;48.778;9.160;2023-09-12T14:32:50;41.00;34.69;60.57;;
37833;Laerm;23678;48.778;9.160;2023-09-12T14:35:34;41.15;34.69;60.94;;
37833;Laerm;23678;48.778;9.160;2023-09-12T14:38:19;40.34;35.36;50.70;;
37833;Laerm;23678;48.778;9.160;2023-09-12T14:41:03;40.57;34.31;58.44;;
37833;Laerm;23678;48.778;9.160;2023-09-12T14:43:47;41.71;34.31;57.86;;
37833;Laerm;23678;48.778;9.160;2023-09-12T14:46:31;40.46;33.90;44.76;;
37833;Laerm;23678;48.778;9.160;2023-09-12T14:49:15;40.92;35.36;48.54;;
37833;Laerm;23678;48.778;9.160;2023-09-12T14:52:00;40.92;35.66;47.79;;
37833;Laerm;23678;48.778;9.160;2023-09-12T14:54:44;40.51;35.04;52.44;;
37833;Laerm;23678;48.778;9.160;2023-09-12T14:57:28;39.82;32.93;46.87;;
37833;Laerm;23678;48.778;9.160;2023-09-12T15:00:12;41.44;35.36;55.44;;
37833;Laerm;23678;48.778;9.160;2023-09-12T15:02:56;39.75;33.90;45.99;;
37833;Laerm;23678;48.778;9.160;2023-09-12T15:05:40;41.72;34.69;57.43;;
37833;Laerm;23678;48.778;9.160;2023-09-12T15:08:24;43.01;36.20;56.26;;
37833;Laerm;23678;48.778;9.160;2023-09-12T15:11:08;41.28;34.31;60.32;;
37833;Laerm;23678;48.778;9.160;2023-09-12T15:13:52;40.54;34.69;60.79;;
37833;Laerm;23678;48.778;9.160;2023-09-12T15:16:36;40.32;35.04;58.91;;
37833;Laerm;23678;48.778;9.160;2023-09-12T15:19:20;41.00;35.66;49.25;;
37833;Laerm;23678;48.778;9.160;2023-09-12T15:22:04;40.03;34.69;55.86;;
37833;Laerm;23678;48.778;9.160;2023-09-12T15:24:48;41.85;34.31;53.20;;
37833;Laerm;23678;48.778;9.160;2023-09-12T15:27:32;47.89;32.93;67.03;;
37833;Laerm;23678;48.778;9.160;2023-09-12T15:30:18;38.12;30.89;43.99;;
37833;Laerm;23678;48.778;9.160;2023-09-12T15:33:02;39.33;31.68;47.52;;
37833;Laerm;23678;48.778;9.160;2023-09-12T15:35:46;40.05;31.68;47.79;;
37833;Laerm;23678;48.778;9.160;2023-09-12T15:38:36;39.52;32.35;47.63;;
37833;Laerm;23678;48.778;9.160;2023-09-12T15:41:20;45.30;34.31;58.58;;